Aviation Digital Data Service (ADDS)

Output produced by METARs form (1048 UTC 16 July 2018)
found at http://www.aviationweather.gov/adds/metars/
 
METAR text: EHGG 161025Z AUTO 08007KT 040V150 9999 NCD 26/11 Q1014 NOSIG
Conditions at: EHGG (GRONINGEN/EELDE , NL) observed 1025 UTC 16 July 2018
Temperature: 26.0°C (79°F)
Dewpoint: 11.0°C (52°F) [RH = 39%]
Pressure (altimeter): 29.94 inches Hg (1014.0 mb)
Winds: from the E (80 degrees) at 8 MPH (7 knots; 3.6 m/s)
Visibility: 6 or more miles (10+ km)
Ceiling: at least 12,000 feet AGL
Clouds: sky clear below 12,000 feet AGL
Weather: no significant weather observed at this time